sensor_id;sensor_type;location;lat;lon;timestamp;temperature;humidity
21037;DHT22;10677;50.942;4.028;2022-08-14T00:02:25;23.90;99.90
21037;DHT22;10677;50.942;4.028;2022-08-14T00:04:51;23.90;99.90
21037;DHT22;10677;50.942;4.028;2022-08-14T00:07:17;23.90;99.90
21037;DHT22;10677;50.942;4.028;2022-08-14T00:09:44;23.80;99.90
21037;DHT22;10677;50.942;4.028;2022-08-14T00:12:10;23.70;99.90
21037;DHT22;10677;50.942;4.028;2022-08-14T00:14:36;23.70;99.90
21037;DHT22;10677;50.942;4.028;2022-08-14T00:17:02;23.80;99.90
21037;DHT22;10677;50.942;4.028;2022-08-14T00:19:28;23.80;99.90
21037;DHT22;10677;50.942;4.028;2022-08-14T00:21:54;23.70;99.90
21037;DHT22;10677;50.942;4.028;2022-08-14T00:24:20;23.70;99.90
21037;DHT22;10677;50.942;4.028;2022-08-14T00:26:46;23.60;99.90
21037;DHT22;10677;50.942;4.028;2022-08-14T00:29:11;23.50;99.90
21037;DHT22;10677;50.942;4.028;2022-08-14T00:31:37;23.50;99.90
21037;DHT22;10677;50.942;4.028;2022-08-14T00:34:03;23.40;99.90
21037;DHT22;10677;50.942;4.028;2022-08-14T00:36:29;23.30;99.90
21037;DHT22;10677;50.942;4.028;2022-08-14T00:38:55;23.20;99.90
21037;DHT22;10677;50.942;4.028;2022-08-14T00:41:20;23.10;99.90
21037;DHT22;10677;50.942;4.028;2022-08-14T00:43:46;23.00;99.90
21037;DHT22;10677;50.942;4.028;2022-08-14T00:46:13;23.00;99.90
21037;DHT22;10677;50.942;4.028;2022-08-14T00:48:38;23.00;99.90
21037;DHT22;10677;50.942;4.028;2022-08-14T00:51:07;23.00;99.90
21037;DHT22;10677;50.942;4.028;2022-08-14T00:53:34;23.00;99.90
21037;DHT22;10677;50.942;4.028;2022-08-14T00:56:02;23.00;99.90
21037;DHT22;10677;50.942;4.028;2022-08-14T00:58:28;23.10;99.90
21037;DHT22;10677;50.942;4.028;2022-08-14T01:01:02;23.00;99.90
21037;DHT22;10677;50.942;4.028;2022-08-14T01:03:29;23.00;99.90
21037;DHT22;10677;50.942;4.028;2022-08-14T01:05:55;22.80;99.90
21037;DHT22;10677;50.942;4.028;2022-08-14T01:08:29;22.70;99.90
21037;DHT22;10677;50.942;4.028;2022-08-14T01:10:56;22.60;99.90
21037;DHT22;10677;50.942;4.028;2022-08-14T01:13:25;22.50;99.90
21037;DHT22;10677;50.942;4.028;2022-08-14T01:15:56;22.40;99.90
21037;DHT22;10677;50.942;4.028;2022-08-14T01:18:23;22.40;99.90
21037;DHT22;10677;50.942;4.028;2022-08-14T01:21:08;22.30;99.90
21037;DHT22;10677;50.942;4.028;2022-08-14T01:23:40;22.30;99.90
21037;DHT22;10677;50.942;4.028;2022-08-14T01:26:07;22.30;99.90
21037;DHT22;10677;50.942;4.028;2022-08-14T01:28:34;22.30;99.90
21037;DHT22;10677;50.942;4.028;2022-08-14T01:31:05;22.40;99.90
21037;DHT22;10677;50.942;4.028;2022-08-14T01:33:31;22.30;99.90
21037;DHT22;10677;50.942;4.028;2022-08-14T01:35:57;22.30;99.90
21037;DHT22;10677;50.942;4.028;2022-08-14T01:38:26;22.20;99.90
21037;DHT22;10677;50.942;4.028;2022-08-14T01:41:00;22.20;99.90
21037;DHT22;10677;50.942;4.028;2022-08-14T01:43:25;22.20;99.90
21037;DHT22;10677;50.942;4.028;2022-08-14T01:45:57;22.20;99.90
21037;DHT22;10677;50.942;4.028;2022-08-14T01:48:23;22.20;99.90
21037;DHT22;10677;50.942;4.028;2022-08-14T01:50:50;22.20;99.90
21037;DHT22;10677;50.942;4.028;2022-08-14T01:53:15;22.20;99.90
21037;DHT22;10677;50.942;4.028;2022-08-14T01:55:42;22.20;99.90
21037;DHT22;10677;50.942;4.028;2022-08-14T01:58:08;22.20;99.90
21037;DHT22;10677;50.942;4.028;2022-08-14T02:00:40;22.20;99.90
21037;DHT22;10677;50.942;4.028;2022-08-14T02:03:06;22.10;99.90
21037;DHT22;10677;50.942;4.028;2022-08-14T02:05:33;22.10;99.90
21037;DHT22;10677;50.942;4.028;2022-08-14T02:07:59;22.00;99.90
21037;DHT22;10677;50.942;4.028;2022-08-14T02:10:24;22.00;99.90
21037;DHT22;10677;50.942;4.028;2022-08-14T02:12:56;21.90;99.90
21037;DHT22;10677;50.942;4.028;2022-08-14T02:15:22;21.90;99.90
21037;DHT22;10677;50.942;4.028;2022-08-14T02:17:49;21.90;99.90
21037;DHT22;10677;50.942;4.028;2022-08-14T02:20:15;21.90;99.90
21037;DHT22;10677;50.942;4.028;2022-08-14T02:22:42;21.90;99.90
21037;DHT22;10677;50.942;4.028;2022-08-14T02:25:08;21.90;99.90
21037;DHT22;10677;50.942;4.028;2022-08-14T02:27:34;21.90;99.90
21037;DHT22;10677;50.942;4.028;2022-08-14T02:30:02;21.90;99.90
21037;DHT22;10677;50.942;4.028;2022-08-14T02:32:30;21.80;99.90
21037;DHT22;10677;50.942;4.028;2022-08-14T02:34:56;21.80;99.90
21037;DHT22;10677;50.942;4.028;2022-08-14T02:37:21;21.60;99.90
21037;DHT22;10677;50.942;4.028;2022-08-14T02:39:47;21.60;99.90
21037;DHT22;10677;50.942;4.028;2022-08-14T02:42:17;21.50;99.90
21037;DHT22;10677;50.942;4.028;2022-08-14T02:44:45;21.50;99.90
21037;DHT22;10677;50.942;4.028;2022-08-14T02:47:11;21.50;99.90
21037;DHT22;10677;50.942;4.028;2022-08-14T02:49:37;21.50;99.90
21037;DHT22;10677;50.942;4.028;2022-08-14T02:52:03;21.60;99.90
21037;DHT22;10677;50.942;4.028;2022-08-14T02:54:32;21.60;99.90
21037;DHT22;10677;50.942;4.028;2022-08-14T02:56:59;21.60;99.90
21037;DHT22;10677;50.942;4.028;2022-08-14T02:59:26;21.70;99.90
21037;DHT22;10677;50.942;4.028;2022-08-14T03:01:54;21.70;99.90
21037;DHT22;10677;50.942;4.028;2022-08-14T03:04:21;21.70;99.90
21037;DHT22;10677;50.942;4.028;2022-08-14T03:06:48;21.70;99.90
21037;DHT22;10677;50.942;4.028;2022-08-14T03:09:14;21.70;99.90
21037;DHT22;10677;50.942;4.028;2022-08-14T03:11:40;21.70;99.90
21037;DHT22;10677;50.942;4.028;2022-08-14T03:14:09;21.70;99.90
21037;DHT22;10677;50.942;4.028;2022-08-14T03:16:37;21.70;99.90
21037;DHT22;10677;50.942;4.028;2022-08-14T03:19:04;21.80;99.90
21037;DHT22;10677;50.942;4.028;2022-08-14T03:21:32;21.70;99.90
21037;DHT22;10677;50.942;4.028;2022-08-14T03:23:59;21.70;99.90
21037;DHT22;10677;50.942;4.028;2022-08-14T03:26:37;21.70;99.90
21037;DHT22;10677;50.942;4.028;2022-08-14T03:29:04;21.80;99.90
21037;DHT22;10677;50.942;4.028;2022-08-14T03:31:30;21.80;99.90
21037;DHT22;10677;50.942;4.028;2022-08-14T03:33:56;21.90;99.90
21037;DHT22;10677;50.942;4.028;2022-08-14T03:36:22;21.80;99.90
21037;DHT22;10677;50.942;4.028;2022-08-14T03:38:49;21.80;99.90
21037;DHT22;10677;50.942;4.028;2022-08-14T03:41:19;21.90;99.90
21037;DHT22;10677;50.942;4.028;2022-08-14T03:43:47;21.90;99.90
21037;DHT22;10677;50.942;4.028;2022-08-14T03:46:13;21.80;99.90
21037;DHT22;10677;50.942;4.028;2022-08-14T03:48:41;21.80;99.90
21037;DHT22;10677;50.942;4.028;2022-08-14T03:51:08;21.80;99.90
21037;DHT22;10677;50.942;4.028;2022-08-14T03:53:35;21.80;99.90
21037;DHT22;10677;50.942;4.028;2022-08-14T03:56:04;21.80;99.90
21037;DHT22;10677;50.942;4.028;2022-08-14T03:58:30;21.80;99.90
21037;DHT22;10677;50.942;4.028;2022-08-14T04:01:00;21.70;99.90
21037;DHT22;10677;50.942;4.028;2022-08-14T04:03:26;21.60;99.90
21037;DHT22;10677;50.942;4.028;2022-08-14T04:05:52;21.60;99.90
21037;DHT22;10677;50.942;4.028;2022-08-14T04:08:19;21.50;99.90
21037;DHT22;10677;50.942;4.028;2022-08-14T04:10:45;21.50;99.90
21037;DHT22;10677;50.942;4.028;2022-08-14T04:13:12;21.40;99.90
21037;DHT22;10677;50.942;4.028;2022-08-14T04:15:43;21.30;99.90
21037;DHT22;10677;50.942;4.028;2022-08-14T04:18:10;21.20;99.90
21037;DHT22;10677;50.942;4.028;2022-08-14T04:20:37;21.20;99.90
21037;DHT22;10677;50.942;4.028;2022-08-14T04:23:03;21.10;99.90
21037;DHT22;10677;50.942;4.028;2022-08-14T04:25:32;21.00;99.90
21037;DHT22;10677;50.942;4.028;2022-08-14T04:28:00;20.90;99.90
21037;DHT22;10677;50.942;4.028;2022-08-14T04:30:26;20.90;99.90
21037;DHT22;10677;50.942;4.028;2022-08-14T04:32:54;20.90;99.90
21037;DHT22;10677;50.942;4.028;2022-08-14T04:35:20;20.80;99.90
21037;DHT22;10677;50.942;4.028;2022-08-14T04:37:45;20.70;99.90
21037;DHT22;10677;50.942;4.028;2022-08-14T04:40:30;20.60;99.90
21037;DHT22;10677;50.942;4.028;2022-08-14T04:43:14;20.40;99.90
21037;DHT22;10677;50.942;4.028;2022-08-14T04:45:58;20.30;99.90
21037;DHT22;10677;50.942;4.028;2022-08-14T04:48:26;20.30;99.90
21037;DHT22;10677;50.942;4.028;2022-08-14T04:50:53;20.30;99.90
21037;DHT22;10677;50.942;4.028;2022-08-14T04:53:26;20.50;99.90
21037;DHT22;10677;50.942;4.028;2022-08-14T04:55:52;20.60;99.90
21037;DHT22;10677;50.942;4.028;2022-08-14T04:58:19;20.60;99.90
21037;DHT22;10677;50.942;4.028;2022-08-14T05:00:47;20.50;99.90
21037;DHT22;10677;50.942;4.028;2022-08-14T05:03:28;20.50;99.90
21037;DHT22;10677;50.942;4.028;2022-08-14T05:06:00;20.30;99.90
21037;DHT22;10677;50.942;4.028;2022-08-14T05:08:27;20.40;99.90
21037;DHT22;10677;50.942;4.028;2022-08-14T05:10:55;20.50;99.90
21037;DHT22;10677;50.942;4.028;2022-08-14T05:13:23;20.70;99.90
21037;DHT22;10677;50.942;4.028;2022-08-14T05:15:50;20.70;99.90
21037;DHT22;10677;50.942;4.028;2022-08-14T05:18:21;20.70;99.90
21037;DHT22;10677;50.942;4.028;2022-08-14T05:20:49;20.70;99.90
21037;DHT22;10677;50.942;4.028;2022-08-14T05:23:19;20.60;99.90
21037;DHT22;10677;50.942;4.028;2022-08-14T05:25:46;20.70;99.90
21037;DHT22;10677;50.942;4.028;2022-08-14T05:28:14;20.70;99.90
21037;DHT22;10677;50.942;4.028;2022-08-14T05:30:50;20.80;99.90
21037;DHT22;10677;50.942;4.028;2022-08-14T05:33:17;20.80;99.90
21037;DHT22;10677;50.942;4.028;2022-08-14T05:35:44;20.80;99.90
21037;DHT22;10677;50.942;4.028;2022-08-14T05:38:12;21.00;99.90
21037;DHT22;10677;50.942;4.028;2022-08-14T05:40:39;21.10;99.90
21037;DHT22;10677;50.942;4.028;2022-08-14T05:43:06;21.10;99.90
21037;DHT22;10677;50.942;4.028;2022-08-14T05:45:32;21.20;99.90
21037;DHT22;10677;50.942;4.028;2022-08-14T05:48:02;21.20;99.90
21037;DHT22;10677;50.942;4.028;2022-08-14T05:50:29;21.20;99.90
21037;DHT22;10677;50.942;4.028;2022-08-14T05:52:55;21.20;99.90
21037;DHT22;10677;50.942;4.028;2022-08-14T05:55:21;21.30;99.90
21037;DHT22;10677;50.942;4.028;2022-08-14T05:57:54;21.30;99.90
21037;DHT22;10677;50.942;4.028;2022-08-14T06:00:25;21.30;99.90
21037;DHT22;10677;50.942;4.028;2022-08-14T06:02:52;21.40;99.90
21037;DHT22;10677;50.942;4.028;2022-08-14T06:05:18;21.50;99.90
21037;DHT22;10677;50.942;4.028;2022-08-14T06:07:44;21.60;99.90
21037;DHT22;10677;50.942;4.028;2022-08-14T06:10:09;21.70;99.90
21037;DHT22;10677;50.942;4.028;2022-08-14T06:12:36;21.80;99.90
21037;DHT22;10677;50.942;4.028;2022-08-14T06:15:03;21.90;99.90
21037;DHT22;10677;50.942;4.028;2022-08-14T06:17:29;21.80;99.90
21037;DHT22;10677;50.942;4.028;2022-08-14T06:19:55;21.90;99.90
21037;DHT22;10677;50.942;4.028;2022-08-14T06:22:20;22.00;99.90
21037;DHT22;10677;50.942;4.028;2022-08-14T06:24:46;22.10;99.90
21037;DHT22;10677;50.942;4.028;2022-08-14T06:27:11;22.10;99.90
21037;DHT22;10677;50.942;4.028;2022-08-14T06:29:37;22.20;99.90
21037;DHT22;10677;50.942;4.028;2022-08-14T06:32:03;22.30;99.90
21037;DHT22;10677;50.942;4.028;2022-08-14T06:34:30;22.40;99.90
21037;DHT22;10677;50.942;4.028;2022-08-14T06:36:55;22.50;99.90
21037;DHT22;10677;50.942;4.028;2022-08-14T06:39:22;22.60;99.90
21037;DHT22;10677;50.942;4.028;2022-08-14T06:41:48;22.80;99.90
21037;DHT22;10677;50.942;4.028;2022-08-14T06:44:13;22.90;99.90
21037;DHT22;10677;50.942;4.028;2022-08-14T06:46:39;23.00;99.90
21037;DHT22;10677;50.942;4.028;2022-08-14T06:49:05;23.20;99.90
21037;DHT22;10677;50.942;4.028;2022-08-14T06:51:31;23.40;99.90
21037;DHT22;10677;50.942;4.028;2022-08-14T06:53:57;23.50;99.90
21037;DHT22;10677;50.942;4.028;2022-08-14T06:56:23;23.60;99.90
21037;DHT22;10677;50.942;4.028;2022-08-14T06:58:49;23.70;99.90
21037;DHT22;10677;50.942;4.028;2022-08-14T07:01:14;23.90;99.90
21037;DHT22;10677;50.942;4.028;2022-08-14T07:03:58;24.10;99.90
21037;DHT22;10677;50.942;4.028;2022-08-14T07:06:42;24.20;99.90
21037;DHT22;10677;50.942;4.028;2022-08-14T07:09:11;24.20;99.90
21037;DHT22;10677;50.942;4.028;2022-08-14T07:11:37;24.20;99.90
21037;DHT22;10677;50.942;4.028;2022-08-14T07:14:03;24.20;99.90
21037;DHT22;10677;50.942;4.028;2022-08-14T07:16:29;24.40;99.90
21037;DHT22;10677;50.942;4.028;2022-08-14T07:18:54;24.50;99.90
21037;DHT22;10677;50.942;4.028;2022-08-14T07:21:20;24.50;99.90
21037;DHT22;10677;50.942;4.028;2022-08-14T07:23:46;24.60;99.90
21037;DHT22;10677;50.942;4.028;2022-08-14T07:26:12;24.70;99.90
21037;DHT22;10677;50.942;4.028;2022-08-14T07:28:39;24.90;99.90
21037;DHT22;10677;50.942;4.028;2022-08-14T07:31:07;25.00;99.90
21037;DHT22;10677;50.942;4.028;2022-08-14T07:36:04;25.30;99.90
21037;DHT22;10677;50.942;4.028;2022-08-14T07:38:30;25.30;99.90
21037;DHT22;10677;50.942;4.028;2022-08-14T07:40:56;25.40;99.90
21037;DHT22;10677;50.942;4.028;2022-08-14T07:43:24;25.50;99.90
21037;DHT22;10677;50.942;4.028;2022-08-14T07:45:50;25.60;99.90
21037;DHT22;10677;50.942;4.028;2022-08-14T07:48:15;25.70;99.90
21037;DHT22;10677;50.942;4.028;2022-08-14T07:50:41;25.90;99.90
21037;DHT22;10677;50.942;4.028;2022-08-14T07:53:07;26.00;99.90
21037;DHT22;10677;50.942;4.028;2022-08-14T07:55:33;26.20;99.90
21037;DHT22;10677;50.942;4.028;2022-08-14T07:58:00;26.40;99.90
21037;DHT22;10677;50.942;4.028;2022-08-14T08:00:26;26.40;99.90
21037;DHT22;10677;50.942;4.028;2022-08-14T08:02:54;26.60;99.90
21037;DHT22;10677;50.942;4.028;2022-08-14T08:05:22;26.70;99.90
21037;DHT22;10677;50.942;4.028;2022-08-14T08:07:51;26.90;99.90
21037;DHT22;10677;50.942;4.028;2022-08-14T08:10:23;27.00;99.90
21037;DHT22;10677;50.942;4.028;2022-08-14T08:13:08;27.20;99.90
21037;DHT22;10677;50.942;4.028;2022-08-14T08:15:41;27.30;99.90
21037;DHT22;10677;50.942;4.028;2022-08-14T08:18:09;27.60;99.90
21037;DHT22;10677;50.942;4.028;2022-08-14T08:20:38;28.00;99.90
21037;DHT22;10677;50.942;4.028;2022-08-14T08:23:05;28.20;99.90
21037;DHT22;10677;50.942;4.028;2022-08-14T08:25:37;28.30;99.90
21037;DHT22;10677;50.942;4.028;2022-08-14T08:28:05;28.40;99.90
21037;DHT22;10677;50.942;4.028;2022-08-14T08:30:40;28.60;99.90
21037;DHT22;10677;50.942;4.028;2022-08-14T08:33:07;28.90;99.90
21037;DHT22;10677;50.942;4.028;2022-08-14T08:35:36;29.10;99.90
21037;DHT22;10677;50.942;4.028;2022-08-14T08:38:14;29.10;99.90
21037;DHT22;10677;50.942;4.028;2022-08-14T08:40:44;29.20;99.90
21037;DHT22;10677;50.942;4.028;2022-08-14T08:43:18;29.30;99.90
21037;DHT22;10677;50.942;4.028;2022-08-14T08:45:48;29.60;99.90
21037;DHT22;10677;50.942;4.028;2022-08-14T08:48:17;29.90;99.90
21037;DHT22;10677;50.942;4.028;2022-08-14T08:50:42;30.00;99.90
21037;DHT22;10677;50.942;4.028;2022-08-14T08:53:09;30.10;99.90
21037;DHT22;10677;50.942;4.028;2022-08-14T08:55:40;30.10;99.90
21037;DHT22;10677;50.942;4.028;2022-08-14T08:58:12;30.30;99.90
21037;DHT22;10677;50.942;4.028;2022-08-14T09:00:40;30.50;99.90
21037;DHT22;10677;50.942;4.028;2022-08-14T09:03:11;30.80;99.90
21037;DHT22;10677;50.942;4.028;2022-08-14T09:08:26;31.20;99.90
21037;DHT22;10677;50.942;4.028;2022-08-14T09:10:54;31.30;99.90
21037;DHT22;10677;50.942;4.028;2022-08-14T09:13:20;31.40;99.90
21037;DHT22;10677;50.942;4.028;2022-08-14T09:15:49;31.60;99.90
21037;DHT22;10677;50.942;4.028;2022-08-14T09:18:17;31.80;99.90
21037;DHT22;10677;50.942;4.028;2022-08-14T09:20:46;31.80;99.90
21037;DHT22;10677;50.942;4.028;2022-08-14T09:23:12;31.90;99.90
21037;DHT22;10677;50.942;4.028;2022-08-14T09:25:41;31.90;99.90
21037;DHT22;10677;50.942;4.028;2022-08-14T09:28:07;31.80;99.30
21037;DHT22;10677;50.942;4.028;2022-08-14T09:30:37;32.00;99.10
21037;DHT22;10677;50.942;4.028;2022-08-14T09:44:02;32.40;96.70
21037;DHT22;10677;50.942;4.028;2022-08-14T09:46:31;32.20;95.20
21037;DHT22;10677;50.942;4.028;2022-08-14T09:49:02;31.90;94.60
21037;DHT22;10677;50.942;4.028;2022-08-14T09:51:28;31.80;94.50
21037;DHT22;10677;50.942;4.028;2022-08-14T09:54:04;31.90;95.10
21037;DHT22;10677;50.942;4.028;2022-08-14T09:56:50;32.00;94.40
21037;DHT22;10677;50.942;4.028;2022-08-14T09:59:17;32.00;93.80
21037;DHT22;10677;50.942;4.028;2022-08-14T10:01:47;32.00;93.30
21037;DHT22;10677;50.942;4.028;2022-08-14T10:04:22;31.90;92.00
21037;DHT22;10677;50.942;4.028;2022-08-14T10:06:49;31.80;92.70
21037;DHT22;10677;50.942;4.028;2022-08-14T10:09:16;31.70;92.40
21037;DHT22;10677;50.942;4.028;2022-08-14T10:11:57;31.70;91.50
21037;DHT22;10677;50.942;4.028;2022-08-14T10:14:24;31.50;91.90
21037;DHT22;10677;50.942;4.028;2022-08-14T10:16:54;31.40;91.70
21037;DHT22;10677;50.942;4.028;2022-08-14T10:19:25;31.40;91.10
21037;DHT22;10677;50.942;4.028;2022-08-14T10:22:03;31.40;91.20
21037;DHT22;10677;50.942;4.028;2022-08-14T10:24:36;31.30;90.90
21037;DHT22;10677;50.942;4.028;2022-08-14T10:27:22;31.20;91.30
21037;DHT22;10677;50.942;4.028;2022-08-14T10:29:51;31.20;91.70
21037;DHT22;10677;50.942;4.028;2022-08-14T10:32:17;31.20;91.00
21037;DHT22;10677;50.942;4.028;2022-08-14T10:34:43;31.10;91.40
21037;DHT22;10677;50.942;4.028;2022-08-14T10:37:13;31.20;91.20
21037;DHT22;10677;50.942;4.028;2022-08-14T10:39:42;31.10;91.20
21037;DHT22;10677;50.942;4.028;2022-08-14T10:42:11;31.00;91.20
21037;DHT22;10677;50.942;4.028;2022-08-14T10:44:43;31.00;91.10
21037;DHT22;10677;50.942;4.028;2022-08-14T10:47:12;31.20;91.00
21037;DHT22;10677;50.942;4.028;2022-08-14T10:49:43;31.40;90.90
21037;DHT22;10677;50.942;4.028;2022-08-14T10:52:31;31.50;90.80
21037;DHT22;10677;50.942;4.028;2022-08-14T10:55:12;31.70;91.20
21037;DHT22;10677;50.942;4.028;2022-08-14T10:57:49;32.00;90.60
21037;DHT22;10677;50.942;4.028;2022-08-14T11:00:18;32.30;91.00
21037;DHT22;10677;50.942;4.028;2022-08-14T11:02:59;32.40;90.70
21037;DHT22;10677;50.942;4.028;2022-08-14T11:05:36;32.60;90.40
21037;DHT22;10677;50.942;4.028;2022-08-14T11:08:03;32.60;89.30
21037;DHT22;10677;50.942;4.028;2022-08-14T11:10:42;32.80;89.60
21037;DHT22;10677;50.942;4.028;2022-08-14T11:13:08;33.00;87.30
21037;DHT22;10677;50.942;4.028;2022-08-14T11:15:35;33.20;88.10
21037;DHT22;10677;50.942;4.028;2022-08-14T11:18:01;33.40;86.50
21037;DHT22;10677;50.942;4.028;2022-08-14T11:20:29;33.30;84.90
21037;DHT22;10677;50.942;4.028;2022-08-14T11:22:58;33.40;84.20
21037;DHT22;10677;50.942;4.028;2022-08-14T11:25:28;33.60;85.40
21037;DHT22;10677;50.942;4.028;2022-08-14T11:27:57;33.50;84.50
21037;DHT22;10677;50.942;4.028;2022-08-14T11:30:28;33.40;83.70
21037;DHT22;10677;50.942;4.028;2022-08-14T11:32:55;33.30;83.90
21037;DHT22;10677;50.942;4.028;2022-08-14T11:35:25;33.40;84.30
21037;DHT22;10677;50.942;4.028;2022-08-14T11:37:52;33.20;85.20
21037;DHT22;10677;50.942;4.028;2022-08-14T11:40:20;33.00;84.50
21037;DHT22;10677;50.942;4.028;2022-08-14T11:42:47;33.00;85.10
21037;DHT22;10677;50.942;4.028;2022-08-14T11:45:14;33.10;85.10
21037;DHT22;10677;50.942;4.028;2022-08-14T11:47:40;32.90;84.60
21037;DHT22;10677;50.942;4.028;2022-08-14T11:50:17;32.90;85.00
21037;DHT22;10677;50.942;4.028;2022-08-14T11:52:44;33.00;85.30
21037;DHT22;10677;50.942;4.028;2022-08-14T11:55:11;32.90;85.10
21037;DHT22;10677;50.942;4.028;2022-08-14T11:57:39;32.90;84.60
21037;DHT22;10677;50.942;4.028;2022-08-14T12:00:10;33.00;85.10
21037;DHT22;10677;50.942;4.028;2022-08-14T12:02:49;33.00;84.70
21037;DHT22;10677;50.942;4.028;2022-08-14T12:05:14;33.00;84.50
21037;DHT22;10677;50.942;4.028;2022-08-14T12:07:49;33.20;84.30
21037;DHT22;10677;50.942;4.028;2022-08-14T12:10:17;33.20;83.70
21037;DHT22;10677;50.942;4.028;2022-08-14T12:12:43;33.40;84.80
21037;DHT22;10677;50.942;4.028;2022-08-14T12:15:09;33.60;83.90
21037;DHT22;10677;50.942;4.028;2022-08-14T12:17:46;33.80;84.20
21037;DHT22;10677;50.942;4.028;2022-08-14T12:20:16;34.10;83.60
21037;DHT22;10677;50.942;4.028;2022-08-14T12:22:44;34.40;82.50
21037;DHT22;10677;50.942;4.028;2022-08-14T12:25:18;34.50;80.90
21037;DHT22;10677;50.942;4.028;2022-08-14T12:27:46;34.60;79.60
21037;DHT22;10677;50.942;4.028;2022-08-14T12:32:54;34.70;78.80
21037;DHT22;10677;50.942;4.028;2022-08-14T12:35:21;34.80;79.00
21037;DHT22;10677;50.942;4.028;2022-08-14T12:37:48;34.70;78.50
21037;DHT22;10677;50.942;4.028;2022-08-14T12:40:16;34.40;78.20
21037;DHT22;10677;50.942;4.028;2022-08-14T12:42:42;34.50;80.30
21037;DHT22;10677;50.942;4.028;2022-08-14T12:45:11;34.60;79.70
21037;DHT22;10677;50.942;4.028;2022-08-14T12:47:40;34.90;78.40
21037;DHT22;10677;50.942;4.028;2022-08-14T12:50:07;35.30;78.20
21037;DHT22;10677;50.942;4.028;2022-08-14T12:52:40;35.20;77.90
21037;DHT22;10677;50.942;4.028;2022-08-14T12:55:09;35.50;77.80
21037;DHT22;10677;50.942;4.028;2022-08-14T12:57:43;35.40;76.00
21037;DHT22;10677;50.942;4.028;2022-08-14T13:00:30;35.00;75.30
21037;DHT22;10677;50.942;4.028;2022-08-14T13:02:55;35.00;75.40
21037;DHT22;10677;50.942;4.028;2022-08-14T13:05:27;35.40;74.40
21037;DHT22;10677;50.942;4.028;2022-08-14T13:07:58;35.50;73.80
21037;DHT22;10677;50.942;4.028;2022-08-14T13:10:24;35.90;74.30
21037;DHT22;10677;50.942;4.028;2022-08-14T13:12:55;35.60;73.40
21037;DHT22;10677;50.942;4.028;2022-08-14T13:15:20;35.70;73.20
21037;DHT22;10677;50.942;4.028;2022-08-14T13:17:54;35.80;73.00
21037;DHT22;10677;50.942;4.028;2022-08-14T13:20:23;35.90;73.80
21037;DHT22;10677;50.942;4.028;2022-08-14T13:22:50;35.70;72.90
21037;DHT22;10677;50.942;4.028;2022-08-14T13:25:18;35.60;73.00
21037;DHT22;10677;50.942;4.028;2022-08-14T13:27:47;35.50;73.20
21037;DHT22;10677;50.942;4.028;2022-08-14T13:30:14;35.30;73.60
21037;DHT22;10677;50.942;4.028;2022-08-14T13:32:40;35.30;73.50
21037;DHT22;10677;50.942;4.028;2022-08-14T13:35:10;35.30;73.40
21037;DHT22;10677;50.942;4.028;2022-08-14T13:37:36;35.60;73.50
21037;DHT22;10677;50.942;4.028;2022-08-14T13:40:04;36.00;72.70
21037;DHT22;10677;50.942;4.028;2022-08-14T13:42:30;36.30;72.10
21037;DHT22;10677;50.942;4.028;2022-08-14T13:44:58;36.20;72.80
21037;DHT22;10677;50.942;4.028;2022-08-14T13:47:26;36.40;73.20
21037;DHT22;10677;50.942;4.028;2022-08-14T13:49:59;36.60;73.10
21037;DHT22;10677;50.942;4.028;2022-08-14T13:52:32;36.20;72.00
21037;DHT22;10677;50.942;4.028;2022-08-14T13:55:02;35.90;72.40
21037;DHT22;10677;50.942;4.028;2022-08-14T13:57:33;36.20;72.40
21037;DHT22;10677;50.942;4.028;2022-08-14T14:00:05;37.10;72.20
21037;DHT22;10677;50.942;4.028;2022-08-14T14:02:46;38.30;70.50
21037;DHT22;10677;50.942;4.028;2022-08-14T14:05:17;39.20;70.10
21037;DHT22;10677;50.942;4.028;2022-08-14T14:07:49;39.30;68.50
21037;DHT22;10677;50.942;4.028;2022-08-14T14:10:16;39.50;68.90
21037;DHT22;10677;50.942;4.028;2022-08-14T14:12:43;39.70;67.90
21037;DHT22;10677;50.942;4.028;2022-08-14T14:15:11;39.00;67.10
21037;DHT22;10677;50.942;4.028;2022-08-14T14:17:38;38.50;68.80
21037;DHT22;10677;50.942;4.028;2022-08-14T14:20:06;38.30;68.00
21037;DHT22;10677;50.942;4.028;2022-08-14T14:22:32;38.20;66.80
21037;DHT22;10677;50.942;4.028;2022-08-14T14:24:58;37.90;66.90
21037;DHT22;10677;50.942;4.028;2022-08-14T14:27:27;37.70;67.70
21037;DHT22;10677;50.942;4.028;2022-08-14T14:29:57;37.40;67.90
21037;DHT22;10677;50.942;4.028;2022-08-14T14:32:27;37.40;68.80
21037;DHT22;10677;50.942;4.028;2022-08-14T14:34:53;37.60;68.10
21037;DHT22;10677;50.942;4.028;2022-08-14T14:37:20;37.40;67.70
21037;DHT22;10677;50.942;4.028;2022-08-14T14:39:49;37.70;67.60
21037;DHT22;10677;50.942;4.028;2022-08-14T14:42:18;37.80;67.80
21037;DHT22;10677;50.942;4.028;2022-08-14T14:44:45;37.90;67.50
21037;DHT22;10677;50.942;4.028;2022-08-14T14:47:17;37.10;67.40
21037;DHT22;10677;50.942;4.028;2022-08-14T14:49:48;36.90;67.70
21037;DHT22;10677;50.942;4.028;2022-08-14T14:52:14;37.00;67.50
21037;DHT22;10677;50.942;4.028;2022-08-14T14:54:41;37.10;67.80
21037;DHT22;10677;50.942;4.028;2022-08-14T14:57:10;36.90;67.40
21037;DHT22;10677;50.942;4.028;2022-08-14T14:59:38;36.50;67.80
21037;DHT22;10677;50.942;4.028;2022-08-14T15:02:06;36.50;68.80
21037;DHT22;10677;50.942;4.028;2022-08-14T15:04:34;36.30;69.00
21037;DHT22;10677;50.942;4.028;2022-08-14T15:07:00;35.60;69.40
21037;DHT22;10677;50.942;4.028;2022-08-14T15:09:26;35.30;69.80
21037;DHT22;10677;50.942;4.028;2022-08-14T15:11:51;35.30;70.10
21037;DHT22;10677;50.942;4.028;2022-08-14T15:14:17;35.30;69.50
21037;DHT22;10677;50.942;4.028;2022-08-14T15:16:45;35.30;70.00
21037;DHT22;10677;50.942;4.028;2022-08-14T15:19:11;35.20;71.00
21037;DHT22;10677;50.942;4.028;2022-08-14T15:21:36;35.30;70.30
21037;DHT22;10677;50.942;4.028;2022-08-14T15:24:02;35.40;71.00
21037;DHT22;10677;50.942;4.028;2022-08-14T15:26:28;35.50;70.50
21037;DHT22;10677;50.942;4.028;2022-08-14T15:28:54;35.30;69.80
21037;DHT22;10677;50.942;4.028;2022-08-14T15:31:20;35.20;70.60
21037;DHT22;10677;50.942;4.028;2022-08-14T15:33:45;35.00;70.50
21037;DHT22;10677;50.942;4.028;2022-08-14T15:36:29;34.70;70.50
21037;DHT22;10677;50.942;4.028;2022-08-14T15:38:56;34.70;71.50
21037;DHT22;10677;50.942;4.028;2022-08-14T15:41:22;34.50;71.30
21037;DHT22;10677;50.942;4.028;2022-08-14T15:43:48;34.50;71.20
21037;DHT22;10677;50.942;4.028;2022-08-14T15:46:14;34.40;71.70
21037;DHT22;10677;50.942;4.028;2022-08-14T15:48:40;34.30;72.00
21037;DHT22;10677;50.942;4.028;2022-08-14T15:51:08;34.00;71.70
21037;DHT22;10677;50.942;4.028;2022-08-14T15:53:33;33.90;71.90
21037;DHT22;10677;50.942;4.028;2022-08-14T15:55:59;33.80;72.70
21037;DHT22;10677;50.942;4.028;2022-08-14T15:58:25;34.00;72.20